sensor_id;sensor_type;location;lat;lon;timestamp;pressure;altitude;pressure_sealevel;temperature;humidity
47710;BME280;33473;51.640;5.892;2023-07-29T06:46:48;100600;;;24.6;53.0
47710;BME280;33473;51.640;5.892;2023-07-29T07:00:09;100600;;;24.9;52.0
47710;BME280;33473;51.640;5.892;2023-07-29T07:13:30;100600;;;24.9;51.0
47710;BME280;33473;51.640;5.892;2023-07-29T07:26:51;100600;;;25.5;52.0
47710;BME280;33473;51.640;5.892;2023-07-29T07:40:11;100600;;;26.1;51.0
47710;BME280;33473;51.640;5.892;2023-07-29T07:53:32;100600;;;26.1;50.0
47710;BME280;33473;51.640;5.892;2023-07-29T08:06:53;100600;;;26.6;50.0
47710;BME280;33473;51.640;5.892;2023-07-29T08:20:13;100600;;;26.7;48.0
47710;BME280;33473;51.640;5.892;2023-07-29T08:33:33;100600;;;26.8;48.0
47710;BME280;33473;51.640;5.892;2023-07-29T08:46:54;100600;;;27.1;46.0
47710;BME280;33473;51.640;5.892;2023-07-29T09:00:14;100600;;;27.4;46.0
47710;BME280;33473;51.640;5.892;2023-07-29T09:13:33;100600;;;27.7;46.0
47710;BME280;33473;51.640;5.892;2023-07-29T09:26:55;100600;;;28.1;45.0
47710;BME280;33473;51.640;5.892;2023-07-29T09:40:16;100600;;;27.7;45.0
47710;BME280;33473;51.640;5.892;2023-07-29T09:53:35;100600;;;28.6;43.0
47710;BME280;33473;51.640;5.892;2023-07-29T10:06:55;100600;;;29.1;44.0
47710;BME280;33473;51.640;5.892;2023-07-29T10:20:15;100600;;;28.9;41.0
47710;BME280;33473;51.640;5.892;2023-07-29T10:33:36;100600;;;28.7;41.0
47710;BME280;33473;51.640;5.892;2023-07-29T10:46:56;100600;;;29.0;42.0
47710;BME280;33473;51.640;5.892;2023-07-29T11:00:17;100600;;;28.8;42.0
47710;BME280;33473;51.640;5.892;2023-07-29T11:13:38;100600;;;29.4;41.0
47710;BME280;33473;51.640;5.892;2023-07-29T11:26:58;100600;;;29.7;39.0
47710;BME280;33473;51.640;5.892;2023-07-29T11:40:17;100600;;;29.4;39.0
47710;BME280;33473;51.640;5.892;2023-07-29T11:53:39;100600;;;29.1;40.0
47710;BME280;33473;51.640;5.892;2023-07-29T12:06:58;100600;;;29.4;41.0
47710;BME280;33473;51.640;5.892;2023-07-29T12:20:19;100600;;;29.6;42.0
47710;BME280;33473;51.640;5.892;2023-07-29T12:33:39;100600;;;30.0;39.0
47710;BME280;33473;51.640;5.892;2023-07-29T12:47:00;100600;;;28.9;42.0
47710;BME280;33473;51.640;5.892;2023-07-29T13:00:20;100600;;;26.9;46.0
47710;BME280;33473;51.640;5.892;2023-07-29T13:13:41;100600;;;26.0;50.0
47710;BME280;33473;51.640;5.892;2023-07-29T13:27:02;100700;;;25.4;54.0
47710;BME280;33473;51.640;5.892;2023-07-29T13:40:24;100600;;;25.7;57.0
47710;BME280;33473;51.640;5.892;2023-07-29T13:53:45;100600;;;26.3;57.0
47710;BME280;33473;51.640;5.892;2023-07-29T14:07:06;100600;;;26.6;57.0
47710;BME280;33473;51.640;5.892;2023-07-29T14:20:26;100600;;;27.2;56.0
47710;BME280;33473;51.640;5.892;2023-07-29T14:33:47;100600;;;27.8;55.0
47710;BME280;33473;51.640;5.892;2023-07-29T14:47:07;100600;;;28.3;52.0
47710;BME280;33473;51.640;5.892;2023-07-29T15:00:28;100600;;;28.3;49.0
47710;BME280;33473;51.640;5.892;2023-07-29T15:13:48;100600;;;28.6;51.0
47710;BME280;33473;51.640;5.892;2023-07-29T15:53:48;100600;;;28.8;49.0
47710;BME280;33473;51.640;5.892;2023-07-29T16:07:08;100600;;;28.3;50.0
47710;BME280;33473;51.640;5.892;2023-07-29T16:20:28;100600;;;27.8;52.0
47710;BME280;33473;51.640;5.892;2023-07-29T16:33:49;100600;;;27.0;54.0
47710;BME280;33473;51.640;5.892;2023-07-29T16:47:09;100600;;;27.1;54.0
47710;BME280;33473;51.640;5.892;2023-07-29T17:00:28;100600;;;27.6;52.0
47710;BME280;33473;51.640;5.892;2023-07-29T17:13:50;100600;;;28.3;51.0
47710;BME280;33473;51.640;5.892;2023-07-29T17:27:11;100600;;;28.0;52.0
47710;BME280;33473;51.640;5.892;2023-07-29T17:40:31;100600;;;27.6;53.0
47710;BME280;33473;51.640;5.892;2023-07-29T17:53:52;100600;;;26.9;54.0
47710;BME280;33473;51.640;5.892;2023-07-29T18:07:11;100600;;;26.9;55.0
47710;BME280;33473;51.640;5.892;2023-07-29T18:20:31;100600;;;26.7;55.0
47710;BME280;33473;51.640;5.892;2023-07-29T18:33:51;100600;;;26.4;56.0
47710;BME280;33473;51.640;5.892;2023-07-29T18:47:11;100600;;;26.1;57.0
47710;BME280;33473;51.640;5.892;2023-07-29T19:00:30;100600;;;25.9;57.0
47710;BME280;33473;51.640;5.892;2023-07-29T19:13:50;100600;;;25.7;57.0
47710;BME280;33473;51.640;5.892;2023-07-29T19:27:10;100700;;;25.4;57.0
47710;BME280;33473;51.640;5.892;2023-07-29T19:40:30;100700;;;25.3;57.0
47710;BME280;33473;51.640;5.892;2023-07-29T19:53:49;100700;;;25.0;57.0
47710;BME280;33473;51.640;5.892;2023-07-29T20:07:10;100700;;;24.7;56.0
47710;BME280;33473;51.640;5.892;2023-07-29T20:20:30;100700;;;24.4;56.0
47710;BME280;33473;51.640;5.892;2023-07-29T20:33:50;100700;;;24.2;56.0
47710;BME280;33473;51.640;5.892;2023-07-29T20:47:11;100700;;;24.0;57.0
47710;BME280;33473;51.640;5.892;2023-07-29T21:00:31;100700;;;23.8;57.0
47710;BME280;33473;51.640;5.892;2023-07-29T21:13:52;100700;;;23.6;57.0
47710;BME280;33473;51.640;5.892;2023-07-29T21:27:12;100700;;;23.4;57.0
47710;BME280;33473;51.640;5.892;2023-07-29T21:40:33;100700;;;23.3;57.0
47710;BME280;33473;51.640;5.892;2023-07-29T21:53:54;100700;;;23.0;56.0
47710;BME280;33473;51.640;5.892;2023-07-29T22:07:15;100700;;;22.8;56.0
47710;BME280;33473;51.640;5.892;2023-07-29T22:20:35;100700;;;22.5;56.0
47710;BME280;33473;51.640;5.892;2023-07-29T22:33:56;100700;;;22.2;55.0
47710;BME280;33473;51.640;5.892;2023-07-29T22:47:18;100800;;;21.9;56.0
47710;BME280;33473;51.640;5.892;2023-07-29T23:00:39;100800;;;21.7;56.0
47710;BME280;33473;51.640;5.892;2023-07-29T23:14:00;100800;;;21.5;56.0
47710;BME280;33473;51.640;5.892;2023-07-29T23:27:22;100800;;;21.2;56.0
47710;BME280;33473;51.640;5.892;2023-07-29T23:40:41;100800;;;21.1;56.0
47710;BME280;33473;51.640;5.892;2023-07-29T23:54:01;100800;;;20.9;56.0
